createdAt,value
2022-11-14T00:00:12.915Z,68.37
2022-11-14T00:02:40.734Z,62.23
2022-11-14T00:05:08.848Z,45.20
2022-11-14T00:07:35.851Z,60.27
2022-11-14T00:10:02.943Z,64.73
2022-11-14T00:12:29.853Z,69.87
2022-11-14T00:14:56.414Z,65.67
2022-11-14T00:17:23.726Z,33.43
2022-11-14T00:19:50.683Z,69.87
2022-11-14T00:22:17.278Z,65.47
2022-11-14T00:24:43.904Z,69.17
2022-11-14T00:27:11.800Z,61.30
2022-11-14T00:29:39.015Z,74.27
2022-11-14T00:32:06.211Z,38.30
2022-11-14T00:34:33.464Z,78.57
2022-11-14T00:37:00.358Z,68.03
2022-11-14T00:39:27.178Z,58.13
2022-11-14T00:41:54.035Z,68.47
2022-11-14T00:44:20.904Z,30.43
2022-11-14T00:46:47.502Z,68.67
2022-11-14T00:49:14.481Z,66.63
2022-11-14T00:51:41.696Z,69.13
2022-11-14T00:54:08.336Z,74.77
2022-11-14T00:56:35.237Z,43.03
2022-11-14T00:59:02.099Z,76.43
2022-11-14T01:01:28.961Z,81.67
2022-11-14T01:03:55.808Z,76.87
2022-11-14T01:06:22.504Z,74.87
2022-11-14T01:08:51.283Z,75.53
2022-11-14T01:11:20.616Z,90.97
2022-11-14T01:13:47.477Z,83.80
2022-11-14T01:16:14.357Z,80.97
2022-11-14T01:18:41.192Z,63.93
2022-11-14T01:21:09.476Z,45.33
2022-11-14T01:23:36.838Z,50.23
2022-11-14T01:26:05.376Z,81.57
2022-11-14T01:28:32.517Z,82.63
2022-11-14T01:31:08.555Z,72.67
2022-11-14T01:33:35.296Z,109.47
2022-11-14T01:36:02.157Z,41.77
2022-11-14T01:38:29.444Z,82.83
2022-11-14T01:40:56.223Z,83.47
2022-11-14T01:43:28.932Z,79.83
2022-11-14T01:45:58.411Z,90.63
2022-11-14T01:48:30.624Z,98.97
2022-11-14T01:51:00.450Z,84.90
2022-11-14T01:53:27.435Z,80.87
2022-11-14T01:55:57.809Z,83.90
2022-11-14T01:58:24.872Z,97.47
2022-11-14T02:00:52.109Z,64.13
2022-11-14T02:03:19.589Z,67.00
2022-11-14T02:05:47.850Z,35.77
2022-11-14T02:08:19.830Z,103.60
2022-11-14T02:10:46.458Z,86.93
2022-11-14T02:13:13.484Z,75.47
2022-11-14T02:15:40.345Z,62.93
2022-11-14T02:18:07.539Z,59.83
2022-11-14T02:20:36.902Z,94.17
2022-11-14T02:23:03.863Z,81.47
2022-11-14T02:25:30.899Z,71.50
2022-11-14T02:27:59.717Z,82.53
2022-11-14T02:30:26.769Z,77.63
2022-11-14T02:35:41.074Z,47.33
2022-11-14T02:38:07.972Z,102.60
2022-11-14T02:40:34.841Z,65.30
2022-11-14T02:43:01.770Z,95.67
2022-11-14T02:45:28.383Z,77.03
2022-11-14T02:47:55.288Z,89.77
2022-11-14T02:50:22.183Z,85.70
2022-11-14T02:52:49.444Z,95.17
2022-11-14T02:55:16.471Z,79.60
2022-11-14T02:57:43.312Z,88.80
2022-11-14T03:00:14.950Z,62.17
2022-11-14T03:02:42.291Z,85.30
2022-11-14T03:05:09.250Z,89.00
2022-11-14T03:07:36.171Z,70.30
2022-11-14T03:10:04.805Z,85.80
2022-11-14T03:12:31.749Z,89.67
2022-11-14T03:14:58.608Z,47.47
2022-11-14T03:17:25.233Z,97.97
2022-11-14T03:19:52.087Z,67.53
2022-11-14T03:22:19.071Z,84.67
2022-11-14T03:24:45.909Z,92.87
2022-11-14T03:27:13.093Z,92.97
2022-11-14T03:29:39.939Z,66.40
2022-11-14T03:32:06.801Z,43.67
2022-11-14T03:34:33.520Z,92.50
2022-11-14T03:37:00.592Z,71.07
2022-11-14T03:39:27.723Z,94.80
2022-11-14T03:41:54.666Z,77.60
2022-11-14T03:44:22.116Z,85.63
2022-11-14T03:46:48.981Z,79.90
2022-11-14T03:49:15.873Z,76.20
2022-11-14T03:51:42.812Z,85.67
2022-11-14T03:54:09.902Z,87.80
2022-11-14T03:56:36.806Z,80.13
2022-11-14T03:59:03.891Z,80.30
2022-11-14T04:01:31.099Z,79.57
2022-11-14T04:03:57.707Z,101.23
2022-11-14T04:06:24.812Z,97.90
2022-11-14T04:08:51.673Z,78.77
2022-11-14T04:11:18.549Z,73.87
2022-11-14T04:13:45.459Z,101.93
2022-11-14T04:16:12.011Z,101.87
2022-11-14T04:18:39.254Z,67.27
2022-11-14T04:21:06.073Z,102.60
2022-11-14T04:23:32.909Z,96.50
2022-11-14T04:25:59.784Z,100.57
2022-11-14T04:28:26.328Z,54.10
2022-11-14T04:30:53.074Z,100.90
2022-11-14T04:33:19.623Z,98.50
2022-11-14T04:35:47.579Z,110.77
2022-11-14T04:38:14.400Z,60.50
2022-11-14T04:40:41.271Z,79.43
2022-11-14T04:43:07.759Z,72.23
2022-11-14T04:45:34.717Z,82.97
2022-11-14T04:48:01.616Z,81.27
2022-11-14T04:50:28.430Z,107.23
2022-11-14T04:52:55.681Z,111.53
2022-11-14T04:55:22.516Z,97.40
2022-11-14T04:57:54.505Z,77.27
2022-11-14T05:00:21.503Z,100.70
2022-11-14T05:02:48.037Z,78.63
2022-11-14T05:05:14.738Z,114.60
2022-11-14T05:07:41.439Z,69.03
2022-11-14T05:10:09.504Z,115.40
2022-11-14T05:12:36.350Z,107.07
2022-11-14T05:15:03.163Z,86.80
2022-11-14T05:17:29.685Z,91.67
2022-11-14T05:19:56.534Z,68.20
2022-11-14T05:22:23.412Z,112.70
2022-11-14T05:24:50.070Z,101.57
2022-11-14T05:27:17.254Z,109.73
2022-11-14T05:29:43.768Z,99.90
2022-11-14T05:32:15.167Z,65.57
2022-11-14T05:34:43.247Z,81.33
2022-11-14T05:37:10.086Z,49.83
2022-11-14T05:39:36.618Z,64.33
2022-11-14T05:42:03.542Z,100.83
2022-11-14T05:44:30.716Z,101.33
2022-11-14T05:46:57.548Z,82.43
2022-11-14T05:49:24.202Z,68.47
2022-11-14T05:51:50.839Z,46.50
2022-11-14T05:54:17.348Z,74.07
2022-11-14T05:56:44.213Z,56.53
2022-11-14T05:59:11.089Z,47.03
2022-11-14T06:01:38.380Z,72.47
2022-11-14T06:04:06.220Z,83.63
2022-11-14T06:06:33.038Z,86.53
2022-11-14T06:08:59.938Z,91.73
2022-11-14T06:11:26.444Z,75.40
2022-11-14T06:13:53.326Z,101.00
2022-11-14T06:16:20.275Z,92.40
2022-11-14T06:18:50.858Z,88.40
2022-11-14T06:21:19.645Z,75.50
2022-11-14T06:23:47.487Z,86.03
2022-11-14T06:26:20.301Z,95.37
2022-11-14T06:28:48.593Z,107.97
2022-11-14T06:31:15.534Z,90.40
2022-11-14T06:33:42.628Z,65.07
2022-11-14T06:36:10.469Z,93.13
2022-11-14T06:38:38.565Z,71.83
2022-11-14T06:41:06.653Z,103.67
2022-11-14T06:43:33.842Z,102.00
2022-11-14T06:46:00.865Z,67.00
2022-11-14T06:48:28.095Z,105.73
2022-11-14T06:50:55.804Z,75.43
2022-11-14T06:53:23.309Z,101.57
2022-11-14T06:55:55.024Z,104.77
2022-11-14T06:58:22.092Z,73.97
2022-11-14T07:00:48.971Z,92.53
2022-11-14T07:03:15.650Z,93.10
2022-11-14T07:05:42.678Z,57.33
2022-11-14T07:08:09.289Z,50.10
2022-11-14T07:10:36.666Z,92.17
2022-11-14T07:13:03.515Z,64.67
2022-11-14T07:15:30.448Z,59.73
2022-11-14T07:17:58.240Z,87.13
2022-11-14T07:20:25.103Z,73.23
2022-11-14T07:22:52.049Z,66.30
2022-11-14T07:25:20.380Z,86.87
2022-11-14T07:27:47.624Z,69.23
2022-11-14T07:30:14.991Z,75.57
2022-11-14T07:32:41.958Z,87.33
2022-11-14T07:35:08.838Z,49.07
2022-11-14T07:37:35.517Z,66.50
2022-11-14T07:40:02.428Z,51.40
2022-11-14T07:42:29.577Z,85.80
2022-11-14T07:44:58.007Z,76.97
2022-11-14T07:47:24.631Z,79.53
2022-11-14T07:49:51.463Z,51.07
2022-11-14T07:52:18.446Z,59.33
2022-11-14T07:54:45.309Z,49.50
2022-11-14T07:57:12.185Z,96.73
2022-11-14T07:59:39.058Z,75.53
2022-11-14T08:02:06.278Z,59.53
2022-11-14T08:04:33.229Z,47.97
2022-11-14T08:06:59.872Z,34.03
2022-11-14T08:09:27.002Z,49.30
2022-11-14T08:11:53.640Z,63.50
2022-11-14T08:14:20.486Z,51.30
2022-11-14T08:16:47.367Z,76.83
2022-11-14T08:19:15.958Z,66.07
2022-11-14T08:21:42.850Z,62.37
2022-11-14T08:24:09.754Z,54.70
2022-11-14T08:26:36.593Z,60.77
2022-11-14T08:29:03.516Z,63.93
2022-11-14T08:31:30.422Z,45.30
2022-11-14T08:33:56.975Z,72.97
2022-11-14T08:36:24.308Z,63.37
2022-11-14T08:38:51.742Z,66.00
2022-11-14T08:41:18.912Z,63.27
2022-11-14T08:43:45.988Z,45.97
2022-11-14T08:46:12.522Z,35.30
2022-11-14T08:48:39.085Z,55.43
2022-11-14T08:51:06.800Z,29.90
2022-11-14T08:53:34.659Z,62.93
2022-11-14T08:56:01.485Z,67.50
2022-11-14T08:58:29.695Z,63.23
2022-11-14T09:01:00.734Z,40.37
2022-11-14T09:03:27.638Z,39.27
2022-11-14T09:05:54.518Z,47.70
2022-11-14T09:08:21.912Z,59.27
2022-11-14T09:10:49.164Z,47.20
2022-11-14T09:13:15.866Z,48.57
2022-11-14T09:15:42.785Z,44.77
2022-11-14T09:18:10.207Z,52.33
2022-11-14T09:20:40.107Z,51.13
2022-11-14T09:23:07.601Z,36.97
2022-11-14T09:25:34.461Z,67.43
2022-11-14T09:28:05.773Z,63.00
2022-11-14T09:30:33.345Z,55.93
2022-11-14T09:33:00.881Z,60.30
2022-11-14T09:35:27.760Z,57.40
2022-11-14T09:38:00.018Z,56.23
2022-11-14T09:40:27.376Z,55.57
2022-11-14T09:43:17.717Z,42.33
2022-11-14T09:45:49.753Z,53.03
2022-11-14T09:48:19.771Z,33.07
2022-11-14T09:50:53.114Z,54.63
2022-11-14T09:53:26.203Z,54.03
2022-11-14T09:55:52.857Z,49.53
2022-11-14T09:58:21.511Z,52.73
2022-11-14T10:00:54.290Z,54.30
2022-11-14T10:03:31.939Z,38.87
2022-11-14T10:06:18.055Z,51.20
2022-11-14T10:09:03.084Z,43.90
2022-11-14T10:11:35.631Z,31.23
2022-11-14T10:14:41.209Z,51.63
2022-11-14T10:17:23.037Z,34.47
2022-11-14T10:19:55.945Z,50.47
2022-11-14T10:22:39.358Z,45.63
2022-11-14T10:25:25.413Z,37.97
2022-11-14T10:28:06.051Z,50.80
2022-11-14T10:30:40.493Z,20.80
2022-11-14T10:33:25.897Z,52.20
2022-11-14T10:35:57.809Z,40.60
2022-11-14T10:38:30.130Z,32.23
2022-11-14T10:41:02.220Z,37.73
2022-11-14T10:43:36.363Z,41.57
2022-11-14T10:46:10.184Z,37.13
2022-11-14T10:48:40.591Z,36.30
2022-11-14T10:51:15.239Z,38.77
2022-11-14T10:53:50.049Z,27.60
2022-11-14T10:56:19.556Z,29.27
2022-11-14T10:58:49.779Z,38.40
2022-11-14T11:01:41.145Z,34.30
2022-11-14T11:04:22.667Z,35.73
2022-11-14T11:06:51.818Z,39.50
2022-11-14T11:09:43.962Z,37.67
2022-11-14T11:12:16.991Z,35.57
2022-11-14T11:14:47.095Z,38.33
2022-11-14T11:17:26.853Z,35.07
2022-11-14T11:20:28.497Z,33.30
2022-11-14T11:23:05.550Z,35.37
2022-11-14T11:25:34.656Z,36.53
2022-11-14T11:28:07.285Z,36.03
2022-11-14T11:30:36.059Z,29.27
2022-11-14T11:33:25.036Z,31.80
2022-11-14T11:35:56.136Z,41.50
2022-11-14T11:38:26.664Z,36.80
2022-11-14T11:40:59.109Z,34.27
2022-11-14T11:43:38.728Z,35.03
2022-11-14T11:46:13.926Z,37.63
2022-11-14T11:48:41.603Z,34.30
2022-11-14T11:51:16.122Z,36.93
2022-11-14T11:53:46.515Z,35.37
2022-11-14T11:56:17.174Z,37.23
2022-11-14T11:58:48.474Z,37.77
2022-11-14T12:01:16.128Z,38.07
2022-11-14T12:03:49.116Z,33.57
2022-11-14T12:06:23.837Z,34.93
2022-11-14T12:09:11.731Z,36.17
2022-11-14T12:11:41.625Z,35.83
2022-11-14T12:14:36.855Z,36.13
2022-11-14T12:17:38.999Z,33.37
2022-11-14T12:20:31.812Z,30.97
2022-11-14T12:23:25.805Z,26.03
2022-11-14T12:26:13.490Z,22.53
2022-11-14T12:28:59.276Z,28.93
2022-11-14T12:31:34.666Z,31.27
2022-11-14T12:34:07.059Z,30.77
2022-11-14T12:36:36.206Z,28.00
2022-11-14T12:39:03.461Z,31.20
2022-11-14T12:41:32.782Z,17.03
2022-11-14T12:44:30.850Z,27.37
2022-11-14T12:47:15.985Z,29.27
2022-11-14T12:50:05.596Z,28.53
2022-11-14T12:52:48.390Z,30.43
2022-11-14T12:55:58.854Z,29.63
2022-11-14T12:58:45.501Z,28.50
2022-11-14T13:01:41.974Z,31.87
2022-11-14T13:04:28.208Z,26.90
2022-11-14T13:07:07.725Z,29.00
2022-11-14T13:09:41.753Z,27.90
2022-11-14T13:12:51.070Z,24.60
2022-11-14T13:15:49.245Z,29.23
2022-11-14T13:18:41.574Z,28.77
2022-11-14T13:21:42.347Z,31.17
2022-11-14T13:24:12.910Z,29.40
2022-11-14T13:26:46.124Z,26.77
2022-11-14T13:30:01.345Z,27.03
2022-11-14T13:32:55.620Z,22.53
2022-11-14T13:35:33.629Z,21.23
2022-11-14T13:38:34.988Z,20.63
2022-11-14T13:41:24.216Z,25.50
2022-11-14T13:44:04.565Z,21.93
2022-11-14T13:46:44.757Z,23.60
2022-11-14T13:49:27.665Z,22.03
2022-11-14T13:51:54.659Z,17.23
2022-11-14T13:54:21.622Z,19.77
2022-11-14T13:56:58.810Z,21.00
2022-11-14T13:59:48.103Z,24.53
2022-11-14T14:02:41.890Z,17.37
2022-11-14T14:05:20.750Z,18.40
2022-11-14T14:08:05.247Z,22.17
2022-11-14T14:10:40.696Z,20.33
2022-11-14T14:13:19.701Z,22.07
2022-11-14T14:15:57.434Z,20.40
2022-11-14T14:18:33.453Z,22.30
2022-11-14T14:21:09.356Z,22.37
2022-11-14T14:23:45.823Z,22.83
2022-11-14T14:26:22.782Z,24.70
2022-11-14T14:28:56.796Z,24.57
2022-11-14T14:31:24.472Z,24.00
2022-11-14T14:33:52.315Z,21.87
2022-11-14T14:36:21.517Z,24.03
2022-11-14T14:38:49.393Z,22.40
2022-11-14T14:41:19.616Z,24.53
2022-11-14T14:43:53.272Z,24.33
2022-11-14T14:46:29.805Z,22.77
2022-11-14T14:48:57.985Z,25.30
2022-11-14T14:51:32.804Z,25.37
2022-11-14T14:53:59.823Z,25.70
2022-11-14T14:56:28.063Z,25.57
2022-11-14T14:58:55.239Z,24.40
2022-11-14T15:01:25.299Z,27.77
2022-11-14T15:03:57.644Z,25.70
2022-11-14T15:06:31.750Z,28.63
2022-11-14T15:09:02.124Z,31.40
2022-11-14T15:11:32.887Z,30.90
2022-11-14T15:14:01.274Z,30.67
2022-11-14T15:16:29.054Z,29.93
2022-11-14T15:18:57.790Z,31.93
2022-11-14T15:21:27.407Z,32.17
2022-11-14T15:24:02.289Z,31.57
2022-11-14T15:26:31.078Z,34.43
2022-11-14T15:29:15.097Z,30.23
2022-11-14T15:31:47.189Z,31.77
2022-11-14T15:34:25.051Z,33.87
2022-11-14T15:37:21.237Z,32.87
2022-11-14T15:39:48.355Z,29.63
2022-11-14T15:42:17.979Z,32.70
2022-11-14T15:44:46.252Z,29.73
2022-11-14T15:47:18.378Z,32.57
2022-11-14T15:49:56.660Z,36.33
2022-11-14T15:52:26.783Z,31.50
2022-11-14T15:54:53.969Z,34.90
2022-11-14T15:57:20.995Z,28.87
2022-11-14T15:59:48.385Z,33.10
2022-11-14T16:02:18.674Z,32.57
2022-11-14T16:04:47.763Z,32.57
2022-11-14T16:07:17.112Z,33.97
2022-11-14T16:09:44.337Z,35.63
2022-11-14T16:12:13.327Z,30.30
2022-11-14T16:14:40.275Z,30.20
2022-11-14T16:17:12.231Z,33.77
2022-11-14T16:19:39.039Z,33.50
2022-11-14T16:22:09.198Z,31.27
2022-11-14T16:24:36.648Z,29.43
2022-11-14T16:27:03.854Z,33.00
2022-11-14T16:29:30.798Z,33.67
2022-11-14T16:31:57.655Z,37.70
2022-11-14T16:34:25.859Z,32.50
2022-11-14T16:36:58.026Z,33.50
2022-11-14T16:39:25.006Z,34.73
2022-11-14T16:41:52.517Z,34.20
2022-11-14T16:44:19.497Z,33.57
2022-11-14T16:46:46.299Z,32.60
2022-11-14T16:49:18.857Z,33.73
2022-11-14T16:51:49.679Z,36.47
2022-11-14T16:54:17.629Z,37.17
2022-11-14T16:56:44.348Z,37.43
2022-11-14T16:59:12.263Z,32.73
2022-11-14T17:01:39.370Z,33.27
2022-11-14T17:04:09.181Z,36.10
2022-11-14T17:06:36.033Z,41.53
2022-11-14T17:09:03.201Z,35.03
2022-11-14T17:11:31.049Z,35.47
2022-11-14T17:13:58.181Z,39.27
2022-11-14T17:16:25.792Z,41.17
2022-11-14T17:18:53.911Z,40.73
2022-11-14T17:21:21.080Z,38.40
2022-11-14T17:23:54.541Z,37.77
2022-11-14T17:26:21.753Z,36.00
2022-11-14T17:28:48.829Z,39.43
2022-11-14T17:31:16.343Z,42.93
2022-11-14T17:33:44.263Z,38.33
2022-11-14T17:36:11.729Z,32.37
2022-11-14T17:38:38.923Z,36.07
2022-11-14T17:41:05.903Z,35.37
2022-11-14T17:43:38.685Z,34.00
2022-11-14T17:46:09.885Z,33.20
2022-11-14T17:48:41.147Z,38.40
2022-11-14T17:51:12.762Z,36.80
2022-11-14T17:53:39.713Z,41.00
2022-11-14T17:56:07.298Z,33.90
2022-11-14T17:58:34.695Z,37.00
2022-11-14T18:01:01.827Z,32.97
2022-11-14T18:03:28.985Z,33.43
2022-11-14T18:06:05.207Z,37.10
2022-11-14T18:08:34.174Z,38.83
2022-11-14T18:11:01.451Z,31.77
2022-11-14T18:13:28.371Z,39.07
2022-11-14T18:15:55.385Z,38.37
2022-11-14T18:18:22.379Z,39.20
2022-11-14T18:20:49.340Z,40.47
2022-11-14T18:23:16.194Z,39.50
2022-11-14T18:25:44.005Z,43.80
2022-11-14T18:28:10.898Z,34.27
2022-11-14T18:30:42.010Z,38.50
2022-11-14T18:33:09.372Z,39.60
2022-11-14T18:35:36.770Z,41.43
2022-11-14T18:38:03.773Z,34.53
2022-11-14T18:40:30.897Z,36.83
2022-11-14T18:42:58.553Z,45.50
2022-11-14T18:45:25.438Z,37.87
2022-11-14T18:47:52.333Z,39.13
2022-11-14T18:50:19.319Z,41.23
2022-11-14T18:52:46.358Z,39.53
2022-11-14T18:55:13.374Z,41.47
2022-11-14T18:57:40.388Z,39.47
2022-11-14T19:00:09.554Z,38.30
2022-11-14T19:02:36.498Z,39.13
2022-11-14T19:05:03.580Z,39.27
2022-11-14T19:07:31.904Z,45.60
2022-11-14T19:09:58.884Z,43.00
2022-11-14T19:12:28.546Z,41.23
2022-11-14T19:14:55.912Z,39.37
2022-11-14T19:17:23.538Z,41.90
2022-11-14T19:19:52.753Z,41.77
2022-11-14T19:22:19.759Z,38.13
2022-11-14T19:24:46.712Z,43.10
2022-11-14T19:27:13.598Z,40.93
2022-11-14T19:29:40.819Z,40.37
2022-11-14T19:32:08.102Z,43.43
2022-11-14T19:34:35.735Z,39.63
2022-11-14T19:37:02.750Z,44.50
2022-11-14T19:39:30.187Z,43.90
2022-11-14T19:41:57.220Z,46.27
2022-11-14T19:44:24.166Z,45.20
2022-11-14T19:46:50.893Z,41.37
2022-11-14T19:49:17.772Z,39.60
2022-11-14T19:51:44.997Z,41.20
2022-11-14T19:54:12.184Z,53.20
2022-11-14T19:56:39.183Z,48.13
2022-11-14T19:59:12.704Z,52.57
2022-11-14T20:01:41.533Z,45.07
2022-11-14T20:04:12.430Z,45.10
2022-11-14T20:06:40.902Z,44.40
2022-11-14T20:09:19.760Z,47.63
2022-11-14T20:11:46.794Z,42.97
2022-11-14T20:14:13.973Z,44.83
2022-11-14T20:16:41.145Z,49.10
2022-11-14T20:19:08.462Z,49.20
2022-11-14T20:21:35.793Z,49.87
2022-11-14T20:24:02.937Z,47.63
2022-11-14T20:26:30.631Z,49.37
2022-11-14T20:28:59.254Z,49.33
2022-11-14T20:31:28.305Z,51.20
2022-11-14T20:33:55.923Z,53.60
2022-11-14T20:36:24.303Z,47.70
2022-11-14T20:38:51.537Z,50.70
2022-11-14T20:41:18.808Z,49.93
2022-11-14T20:43:46.356Z,50.50
2022-11-14T20:46:14.838Z,48.67
2022-11-14T20:48:42.734Z,49.40
2022-11-14T20:51:12.426Z,48.50
2022-11-14T20:53:39.364Z,50.60
2022-11-14T20:56:07.039Z,50.77
2022-11-14T20:58:34.609Z,53.30
2022-11-14T21:01:02.430Z,51.03
2022-11-14T21:03:29.478Z,50.87
2022-11-14T21:05:56.986Z,55.27
2022-11-14T21:08:23.929Z,52.40
2022-11-14T21:10:52.513Z,57.33
2022-11-14T21:13:38.822Z,55.10
2022-11-14T21:16:08.920Z,50.03
2022-11-14T21:18:37.615Z,55.93
2022-11-14T21:21:06.566Z,56.13
2022-11-14T21:23:33.810Z,54.13
2022-11-14T21:26:01.504Z,58.13
2022-11-14T21:28:28.938Z,60.40
2022-11-14T21:30:57.861Z,54.83
2022-11-14T21:33:26.661Z,60.00
2022-11-14T21:35:53.640Z,52.67
2022-11-14T21:38:20.570Z,54.60
2022-11-14T21:40:52.212Z,57.27
2022-11-14T21:43:19.126Z,57.37
2022-11-14T21:45:58.777Z,54.20
2022-11-14T21:48:26.793Z,56.10
2022-11-14T21:50:53.777Z,54.67
2022-11-14T21:53:20.758Z,58.47
2022-11-14T21:55:47.807Z,62.07
2022-11-14T21:58:14.431Z,71.43
2022-11-14T22:00:41.590Z,63.83
2022-11-14T22:03:33.126Z,55.60
2022-11-14T22:06:00.933Z,60.53
2022-11-14T22:08:27.910Z,62.70
2022-11-14T22:11:00.777Z,52.50
2022-11-14T22:13:29.887Z,63.07
2022-11-14T22:15:56.900Z,59.60
2022-11-14T22:18:24.121Z,62.07
2022-11-14T22:20:54.785Z,58.33
2022-11-14T22:23:22.086Z,56.57
2022-11-14T22:25:54.273Z,57.73
2022-11-14T22:28:21.151Z,66.10
2022-11-14T22:30:47.754Z,69.93
2022-11-14T22:33:14.712Z,73.07
2022-11-14T22:35:41.610Z,96.33
2022-11-14T22:38:08.593Z,61.97
2022-11-14T22:40:36.023Z,59.83
2022-11-14T22:43:02.875Z,55.40
2022-11-14T22:45:29.840Z,65.00
2022-11-14T22:47:59.903Z,60.83
2022-11-14T22:50:26.612Z,66.83
2022-11-14T22:52:57.726Z,63.87
2022-11-14T22:55:24.361Z,61.37
2022-11-14T22:57:51.767Z,65.60
2022-11-14T23:00:19.645Z,57.17
2022-11-14T23:02:46.713Z,71.53
2022-11-14T23:05:13.719Z,69.17
2022-11-14T23:07:40.559Z,71.40
2022-11-14T23:10:08.170Z,56.80
2022-11-14T23:12:35.059Z,67.83
2022-11-14T23:15:02.541Z,72.67
2022-11-14T23:17:29.152Z,70.03
2022-11-14T23:19:55.794Z,75.23
2022-11-14T23:22:22.701Z,82.03
2022-11-14T23:24:49.214Z,74.10
2022-11-14T23:27:16.766Z,69.10
2022-11-14T23:29:43.600Z,65.87
2022-11-14T23:32:10.823Z,64.03
2022-11-14T23:34:37.787Z,70.67
2022-11-14T23:37:04.786Z,76.10
2022-11-14T23:39:31.286Z,82.87
2022-11-14T23:41:58.413Z,71.67
2022-11-14T23:44:25.738Z,68.57
2022-11-14T23:46:52.310Z,77.93
2022-11-14T23:49:19.665Z,71.47
2022-11-14T23:51:46.490Z,69.37
2022-11-14T23:54:13.390Z,70.53
2022-11-14T23:56:40.043Z,75.93
2022-11-14T23:59:06.855Z,73.67
